Time;durP1;ratioP1;P1;durP2;ratioP2;P2;SDS_P1;SDS_P2;PMS_P1;PMS_P2;Temp;Humidity;BMP_temperature;BMP_pressure;BME280_temperature;BME280_humidity;BME280_pressure;Samples;Min_cycle;Max_cycle;Signal;HPM_P1;HPM_P2
2023/03/07 00:02:12;;;;;;;5.85;2.38;;;11.90;99.90;;;;;;5011831;28;20034;-77
2023/03/07 00:04:38;;;;;;;8.98;2.60;;;11.80;99.90;;;;;;5011901;28;20064;-77
2023/03/07 00:07:04;;;;;;;6.00;2.55;;;11.80;99.90;;;;;;5011965;28;20026;-77
2023/03/07 00:09:30;;;;;;;9.33;2.40;;;11.90;99.90;;;;;;5012165;28;20022;-78
2023/03/07 00:11:57;;;;;;;6.88;2.55;;;11.90;99.90;;;;;;5011824;28;20105;-77
2023/03/07 00:14:23;;;;;;;;;;;11.80;99.90;;;;;;5012317;28;20057;-77
2023/03/07 00:16:50;;;;;;;11.73;2.40;;;11.80;99.90;;;;;;5011741;28;20328;-76
2023/03/07 00:19:17;;;;;;;7.13;2.25;;;11.80;99.90;;;;;;5012012;28;20041;-77
2023/03/07 00:21:44;;;;;;;6.15;2.28;;;11.80;99.90;;;;;;5012236;28;20113;-78
2023/03/07 00:24:12;;;;;;;5.00;2.20;;;11.80;99.90;;;;;;5011337;28;20045;-77
2023/03/07 00:26:38;;;;;;;6.30;2.72;;;11.80;99.90;;;;;;5010571;28;20034;-77
2023/03/07 00:29:06;;;;;;;8.98;2.42;;;11.80;99.90;;;;;;5011916;28;20022;-74
2023/03/07 00:31:33;;;;;;;6.43;2.40;;;11.80;99.90;;;;;;5011751;28;20033;-76
2023/03/07 00:33:59;;;;;;;8.02;2.60;;;11.80;99.90;;;;;;5011879;28;20026;-76
2023/03/07 00:36:26;;;;;;;8.00;2.58;;;11.70;99.90;;;;;;5010514;28;20022;-76
2023/03/07 00:38:52;;;;;;;9.48;2.67;;;11.80;99.90;;;;;;5011832;28;20049;-76
2023/03/07 00:41:20;;;;;;;7.15;2.55;;;11.80;99.90;;;;;;5012511;28;20079;-76
2023/03/07 00:43:47;;;;;;;10.75;2.60;;;11.90;99.90;;;;;;5011821;28;20113;-77
2023/03/07 00:46:15;;;;;;;11.73;2.83;;;11.80;99.90;;;;;;5011487;28;20037;-76
2023/03/07 00:48:41;;;;;;;6.20;2.35;;;11.80;99.90;;;;;;5011764;28;20490;-77
2023/03/07 00:51:09;;;;;;;9.38;2.70;;;11.70;99.90;;;;;;5011705;28;20040;-76
2023/03/07 00:53:36;;;;;;;4.90;2.00;;;11.80;99.90;;;;;;5012131;28;20022;-77
2023/03/07 00:56:13;;;;;;;8.25;2.63;;;11.80;99.90;;;;;;5011688;28;20026;-77
2023/03/07 00:58:39;;;;;;;7.75;2.85;;;11.80;99.90;;;;;;5011797;28;20486;-77
2023/03/07 01:01:08;;;;;;;10.37;3.00;;;11.90;99.90;;;;;;5011867;28;20455;-77
2023/03/07 01:03:35;;;;;;;10.02;3.03;;;12.00;99.90;;;;;;5011446;28;20032;-78
2023/03/07 01:06:12;;;;;;;6.57;2.15;;;12.00;99.90;;;;;;5011809;28;20030;-77
2023/03/07 01:08:38;;;;;;;7.68;2.72;;;12.00;99.90;;;;;;5010180;28;20036;-77
2023/03/07 01:11:05;;;;;;;7.33;2.67;;;12.10;99.90;;;;;;5011623;28;20021;-77
2023/03/07 01:13:35;;;;;;;7.78;2.28;;;12.10;99.90;;;;;;5010225;28;20764;-77
2023/03/07 01:16:17;;;;;;;5.63;2.33;;;12.10;99.90;;;;;;5011528;28;20026;-76
2023/03/07 01:18:49;;;;;;;5.40;2.30;;;12.30;99.90;;;;;;5011370;28;20041;-77
2023/03/07 01:21:25;;;;;;;10.90;2.67;;;12.30;99.90;;;;;;5013855;28;20033;-78
2023/03/07 01:23:51;;;;;;;7.75;2.20;;;12.30;99.90;;;;;;5015290;28;20114;-77
2023/03/07 01:26:21;;;;;;;4.55;2.50;;;12.20;99.90;;;;;;5014798;28;20038;-77
2023/03/07 01:28:52;;;;;;;6.68;2.30;;;12.20;99.90;;;;;;5014910;28;20029;-77
2023/03/07 01:31:18;;;;;;;7.47;2.28;;;12.20;99.90;;;;;;5013222;28;20382;-77
2023/03/07 01:33:47;;;;;;;7.67;2.40;;;12.10;99.90;;;;;;5013376;28;20418;-78
2023/03/07 01:36:20;;;;;;;6.80;2.17;;;12.00;99.90;;;;;;5013202;28;20386;-77
2023/03/07 01:38:47;;;;;;;6.38;2.60;;;12.00;99.90;;;;;;5013189;28;20044;-77
2023/03/07 01:41:14;;;;;;;10.65;2.42;;;11.90;99.90;;;;;;5014645;28;20022;-78
2023/03/07 01:43:40;;;;;;;7.10;2.47;;;11.90;99.90;;;;;;5014482;28;20084;-78
2023/03/07 01:46:18;;;;;;;7.10;2.40;;;11.90;99.90;;;;;;5012950;28;20034;-77
2023/03/07 01:48:47;;;;;;;14.02;2.40;;;11.80;99.90;;;;;;5014484;28;20276;-78
2023/03/07 01:51:13;;;;;;;8.35;2.50;;;11.80;99.90;;;;;;5014275;28;20097;-77
2023/03/07 01:53:40;;;;;;;10.75;2.80;;;11.80;99.90;;;;;;5014622;28;20109;-77
2023/03/07 01:56:07;;;;;;;6.45;2.53;;;11.80;99.90;;;;;;5014601;28;20029;-77
2023/03/07 01:58:34;;;;;;;;;;;11.80;99.90;;;;;;5014691;28;20077;-74
2023/03/07 02:01:03;;;;;;;6.38;2.08;;;11.80;99.90;;;;;;5012634;28;19992;-77
2023/03/07 02:03:52;;;;;;;12.95;2.83;;;11.80;99.90;;;;;;5014319;28;20018;-78
2023/03/07 02:06:19;;;;;;;6.32;2.35;;;11.80;99.90;;;;;;5014282;28;20068;-77
2023/03/07 02:08:49;;;;;;;5.75;2.30;;;11.80;99.90;;;;;;5014431;28;20061;-78
2023/03/07 02:11:15;;;;;;;6.18;2.25;;;11.80;99.90;;;;;;5012651;28;20030;-77
2023/03/07 02:13:42;;;;;;;4.45;1.90;;;11.80;99.90;;;;;;5014231;28;20158;-77
2023/03/07 02:16:08;;;;;;;12.00;2.30;;;11.80;99.90;;;;;;5013845;28;20018;-77
2023/03/07 02:18:39;;;;;;;10.43;2.30;;;11.80;99.90;;;;;;5014054;28;20140;-77
2023/03/07 02:21:46;;;;;;;6.30;2.40;;;11.70;99.90;;;;;;5012454;28;20018;-77
2023/03/07 02:24:27;;;;;;;4.25;2.10;;;11.70;99.90;;;;;;5012259;28;20083;-78
2023/03/07 02:26:53;;;;;;;6.38;1.98;;;11.70;99.90;;;;;;5013895;28;20030;-78
2023/03/07 02:29:20;;;;;;;8.65;2.42;;;11.70;99.90;;;;;;5012215;28;20057;-77
2023/03/07 02:31:46;;;;;;;5.40;2.40;;;11.70;99.90;;;;;;5012033;28;20145;-76
2023/03/07 02:34:27;;;;;;;9.10;2.50;;;11.70;99.90;;;;;;5013599;28;20026;-77
2023/03/07 02:37:04;;;;;;;10.63;2.17;;;11.70;99.90;;;;;;5013989;28;20437;-77
2023/03/07 02:39:30;;;;;;;7.30;2.40;;;11.70;99.90;;;;;;5014092;28;20064;-77
2023/03/07 02:42:02;;;;;;;6.88;2.17;;;11.70;99.90;;;;;;5013542;28;20128;-76
2023/03/07 02:44:28;;;;;;;7.10;2.33;;;11.70;99.90;;;;;;5013512;28;20034;-77
2023/03/07 02:46:54;;;;;;;5.57;2.27;;;11.70;99.90;;;;;;5013272;28;20022;-77
2023/03/07 02:49:22;;;;;;;11.00;2.35;;;11.70;99.90;;;;;;5013110;28;20026;-77
2023/03/07 02:51:48;;;;;;;7.10;2.30;;;11.70;99.90;;;;;;5011795;28;20172;-77
2023/03/07 02:54:14;;;;;;;10.30;2.60;;;11.70;99.90;;;;;;5011720;28;20184;-77
2023/03/07 02:56:41;;;;;;;;;;;11.60;99.90;;;;;;5013506;28;20026;-78
2023/03/07 02:59:09;;;;;;;6.50;2.40;;;11.60;99.90;;;;;;5013414;28;19922;-76
2023/03/07 03:01:35;;;;;;;8.82;2.30;;;11.60;99.90;;;;;;5012943;28;20499;-77
2023/03/07 03:04:01;;;;;;;5.38;2.20;;;11.50;99.90;;;;;;5012961;28;20034;-77
2023/03/07 03:06:28;;;;;;;4.73;2.00;;;11.60;99.90;;;;;;5013044;28;20028;-77
2023/03/07 03:08:54;;;;;;;5.85;2.17;;;11.60;99.90;;;;;;5012873;28;20037;-76
2023/03/07 03:11:20;;;;;;;8.80;2.10;;;11.60;99.90;;;;;;5012962;28;20025;-76
2023/03/07 03:13:49;;;;;;;8.53;2.67;;;11.50;99.90;;;;;;5013289;28;20459;-76
2023/03/07 03:16:16;;;;;;;9.18;2.42;;;11.60;99.90;;;;;;5012711;28;20431;-78
2023/03/07 03:18:42;;;;;;;7.82;2.10;;;11.50;99.90;;;;;;5013164;28;20109;-77
2023/03/07 03:21:09;;;;;;;6.63;2.10;;;11.50;99.90;;;;;;5011288;28;20022;-77
2023/03/07 03:23:36;;;;;;;6.55;2.05;;;11.50;99.90;;;;;;5012577;28;20048;-77
2023/03/07 03:26:06;;;;;;;5.60;1.67;;;11.50;99.90;;;;;;5012757;28;20492;-78
2023/03/07 03:28:36;;;;;;;9.80;2.40;;;11.50;99.90;;;;;;5012525;28;20041;-77
2023/03/07 03:31:07;;;;;;;10.45;2.55;;;11.50;99.90;;;;;;5012829;28;20030;-76
2023/03/07 03:33:34;;;;;;;8.25;1.88;;;11.50;99.90;;;;;;5013400;28;20446;-77
2023/03/07 03:36:07;;;;;;;5.05;2.05;;;11.60;99.90;;;;;;5012596;28;20065;-78
2023/03/07 03:38:33;;;;;;;7.30;1.90;;;11.60;99.90;;;;;;5012653;28;20470;-78
2023/03/07 03:41:04;;;;;;;10.25;1.90;;;11.60;99.90;;;;;;5011336;28;20124;-78
2023/03/07 03:43:30;;;;;;;5.95;1.80;;;11.60;99.90;;;;;;5012235;28;20355;-79
2023/03/07 03:45:57;;;;;;;4.60;2.10;;;11.60;99.90;;;;;;5010360;28;20468;-77
2023/03/07 03:48:24;;;;;;;5.47;1.90;;;11.50;99.90;;;;;;5011891;28;20030;-76
2023/03/07 03:50:50;;;;;;;5.68;2.03;;;11.50;99.90;;;;;;5011975;28;20339;-77
2023/03/07 03:53:16;;;;;;;6.65;1.75;;;11.50;99.90;;;;;;5011697;28;20055;-78
2023/03/07 03:55:42;;;;;;;3.30;1.97;;;11.50;99.90;;;;;;5011680;28;20067;-77
2023/03/07 03:58:10;;;;;;;9.43;2.17;;;11.50;99.90;;;;;;5011582;28;20072;-76
2023/03/07 04:00:36;;;;;;;4.47;1.60;;;11.50;99.90;;;;;;5011648;28;20042;-77
2023/03/07 04:03:02;;;;;;;3.80;1.90;;;11.50;99.90;;;;;;5012187;28;20356;-76
2023/03/07 04:05:28;;;;;;;3.97;1.98;;;11.50;99.90;;;;;;5011891;28;20299;-78
2023/03/07 04:07:54;;;;;;;6.30;2.00;;;11.50;99.90;;;;;;5010329;28;20018;-78
2023/03/07 04:10:20;;;;;;;8.50;2.20;;;11.60;99.90;;;;;;5010885;28;20025;-76
2023/03/07 04:12:46;;;;;;;;;;;11.60;99.90;;;;;;5012628;28;20025;-77
2023/03/07 04:15:12;;;;;;;4.63;1.80;;;11.60;99.90;;;;;;5012296;28;19952;-77
2023/03/07 04:17:38;;;;;;;5.63;2.05;;;11.60;99.90;;;;;;5012171;28;20094;-77
2023/03/07 04:20:10;;;;;;;7.97;2.38;;;11.60;99.90;;;;;;5012214;28;20033;-77
2023/03/07 04:22:37;;;;;;;4.97;2.00;;;11.60;99.90;;;;;;5012587;28;20080;-77
2023/03/07 04:25:05;;;;;;;4.13;1.70;;;11.60;99.90;;;;;;5012884;28;20124;-77
2023/03/07 04:27:34;;;;;;;4.05;1.70;;;11.70;99.90;;;;;;5012751;28;20029;-77
2023/03/07 04:30:00;;;;;;;5.07;1.60;;;11.70;99.90;;;;;;5012841;28;20026;-76
2023/03/07 04:32:26;;;;;;;9.63;1.80;;;11.60;99.90;;;;;;5012703;28;20069;-77
2023/03/07 04:34:52;;;;;;;8.50;2.03;;;11.60;99.90;;;;;;5012760;28;20469;-77
2023/03/07 04:37:18;;;;;;;5.93;1.88;;;11.60;99.90;;;;;;5012738;28;20025;-77
2023/03/07 04:39:45;;;;;;;4.88;1.88;;;11.50;99.90;;;;;;5013378;28;20030;-77
2023/03/07 04:42:11;;;;;;;7.47;2.23;;;11.50;99.90;;;;;;5013074;28;20018;-78
2023/03/07 04:44:38;;;;;;;4.43;1.75;;;11.50;99.90;;;;;;5012643;28;20482;-78
2023/03/07 04:47:04;;;;;;;5.10;1.92;;;11.40;99.90;;;;;;5012759;28;20028;-77
2023/03/07 04:49:30;;;;;;;6.32;2.03;;;11.40;99.90;;;;;;5013122;28;20040;-77
2023/03/07 04:51:56;;;;;;;3.13;2.00;;;11.40;99.90;;;;;;5013002;28;20230;-77
2023/03/07 04:54:22;;;;;;;4.60;2.00;;;11.30;99.90;;;;;;5015400;28;20014;-78
2023/03/07 04:56:48;;;;;;;6.20;2.13;;;11.30;99.90;;;;;;5016304;28;20026;-76
2023/03/07 04:59:15;;;;;;;9.85;2.30;;;11.30;99.90;;;;;;5016220;28;20402;-78
2023/03/07 05:01:41;;;;;;;5.20;2.40;;;11.20;99.90;;;;;;5016100;28;20033;-78
2023/03/07 05:04:08;;;;;;;9.63;2.30;;;11.20;99.90;;;;;;5016238;28;20118;-77
2023/03/07 05:06:34;;;;;;;5.57;2.20;;;11.10;99.90;;;;;;5014847;28;20069;-78
2023/03/07 05:09:00;;;;;;;6.70;2.43;;;11.10;99.90;;;;;;5014898;28;20022;-78
2023/03/07 05:11:26;;;;;;;8.45;2.67;;;11.10;99.90;;;;;;5016650;28;20025;-75
2023/03/07 05:13:52;;;;;;;9.30;2.43;;;11.00;99.90;;;;;;5016492;28;20029;-77
2023/03/07 05:16:18;;;;;;;6.38;2.40;;;10.90;99.90;;;;;;5016283;28;20030;-77
2023/03/07 05:18:44;;;;;;;8.47;2.47;;;10.80;99.90;;;;;;5016669;28;20045;-78
2023/03/07 05:21:10;;;;;;;6.47;2.50;;;10.80;99.90;;;;;;5016512;28;20474;-77
2023/03/07 05:23:36;;;;;;;6.00;2.22;;;10.90;99.90;;;;;;5015636;28;20037;-78
2023/03/07 05:26:02;;;;;;;3.87;1.93;;;10.90;99.90;;;;;;5016350;28;20504;-75
2023/03/07 05:28:28;;;;;;;5.10;1.93;;;11.00;99.90;;;;;;5016276;28;20030;-78
2023/03/07 05:30:54;;;;;;;7.63;2.33;;;11.10;99.90;;;;;;5016082;28;20041;-75
2023/03/07 05:33:21;;;;;;;7.43;2.33;;;11.20;99.90;;;;;;5016142;28;20022;-78
2023/03/07 05:35:54;;;;;;;3.13;1.60;;;11.20;99.90;;;;;;5016043;28;20065;-78
2023/03/07 05:38:20;;;;;;;5.85;2.00;;;11.20;99.90;;;;;;5016297;28;20702;-78
2023/03/07 05:40:46;;;;;;;6.90;3.13;;;11.30;99.90;;;;;;5016016;28;20022;-78
2023/03/07 05:43:12;;;;;;;11.97;3.57;;;11.40;99.90;;;;;;5016411;28;20323;-78
2023/03/07 05:45:38;;;;;;;7.10;2.83;;;11.50;99.90;;;;;;5014534;28;20035;-77
2023/03/07 05:48:04;;;;;;;5.23;2.77;;;11.50;99.90;;;;;;5015546;28;20088;-78
2023/03/07 05:50:30;;;;;;;5.30;2.60;;;11.50;99.90;;;;;;5014606;28;20037;-78
2023/03/07 05:52:56;;;;;;;8.18;1.88;;;11.60;99.90;;;;;;5014661;28;20126;-77
2023/03/07 05:55:22;;;;;;;7.53;2.23;;;11.60;99.90;;;;;;5015358;28;20084;-78
2023/03/07 05:57:50;;;;;;;5.00;2.20;;;11.60;99.90;;;;;;5015662;28;20072;-77
2023/03/07 06:00:17;;;;;;;8.38;2.15;;;11.60;99.90;;;;;;5014922;28;20111;-72
2023/03/07 06:02:43;;;;;;;7.57;2.03;;;11.70;99.90;;;;;;5015216;28;20072;-73
2023/03/07 06:05:09;;;;;;;5.60;1.73;;;11.70;99.90;;;;;;5013836;28;20137;-73
2023/03/07 06:07:35;;;;;;;6.15;2.20;;;11.80;99.90;;;;;;5014886;28;20053;-73
2023/03/07 06:10:03;;;;;;;4.33;2.03;;;11.90;99.90;;;;;;5014675;28;20029;-73
2023/03/07 06:12:29;;;;;;;5.97;1.73;;;12.90;99.90;;;;;;5015184;28;20029;-74
2023/03/07 06:14:55;;;;;;;4.70;1.67;;;14.20;99.90;;;;;;5015119;28;20037;-73
2023/03/07 06:17:22;;;;;;;5.73;1.80;;;15.60;99.90;;;;;;5013225;28;20026;-71
2023/03/07 06:19:48;;;;;;;5.30;1.80;;;16.80;99.90;;;;;;5003790;28;20360;-73
2023/03/07 06:22:14;;;;;;;4.80;1.73;;;18.10;99.90;;;;;;5010552;28;20029;-70
2023/03/07 06:24:42;;;;;;;4.07;1.50;;;19.30;99.90;;;;;;5003595;28;20296;-71
2023/03/07 06:27:09;;;;;;;3.38;1.20;;;19.20;99.90;;;;;;5007818;28;20105;-72
2023/03/07 06:29:37;;;;;;;4.07;1.40;;;17.90;99.90;;;;;;5005309;28;20017;-73
2023/03/07 06:32:04;;;;;;;3.40;1.52;;;17.70;99.90;;;;;;5010983;28;20022;-71
2023/03/07 06:34:30;;;;;;;3.53;1.50;;;18.30;99.90;;;;;;5007614;28;20411;-74
2023/03/07 06:36:59;;;;;;;3.45;1.30;;;18.80;99.90;;;;;;5006283;28;20041;-72
2023/03/07 06:39:26;;;;;;;7.18;1.90;;;17.90;99.90;;;;;;5008454;28;20045;-73
2023/03/07 06:41:53;;;;;;;4.13;1.50;;;17.00;99.90;;;;;;5010028;28;20494;-73
2023/03/07 06:44:20;;;;;;;5.50;1.67;;;16.10;99.90;;;;;;5009557;28;20363;-73
2023/03/07 06:46:47;;;;;;;5.75;1.98;;;15.60;99.90;;;;;;5000630;28;20517;-73
2023/03/07 06:49:13;;;;;;;;;;;15.20;99.90;;;;;;5000579;28;20367;-72
2023/03/07 06:51:39;;;;;;;3.63;1.42;;;15.90;99.90;;;;;;5005387;28;19992;-74
2023/03/07 06:54:05;;;;;;;5.63;1.65;;;16.90;99.90;;;;;;5011745;28;20022;-73
2023/03/07 06:56:34;;;;;;;5.10;1.73;;;17.80;99.90;;;;;;5012573;28;20030;-73
2023/03/07 06:59:02;;;;;;;6.75;1.40;;;17.80;99.90;;;;;;5012284;28;20141;-73
2023/03/07 07:01:28;;;;;;;7.00;1.88;;;16.80;99.90;;;;;;5027456;28;20478;-74
2023/03/07 07:03:55;;;;;;;4.28;1.60;;;15.90;99.90;;;;;;5012880;28;20533;-74
2023/03/07 07:06:21;;;;;;;;;;;15.10;99.90;;;;;;5013142;28;20477;-74
2023/03/07 07:08:48;;;;;;;5.65;1.90;;;14.80;99.90;;;;;;5013071;28;19909;-74
2023/03/07 07:11:15;;;;;;;6.80;1.48;;;14.80;99.90;;;;;;5027828;28;20037;-76
2023/03/07 07:13:41;;;;;;;4.07;1.35;;;14.70;99.90;;;;;;5012853;28;20034;-72
2023/03/07 07:16:09;;;;;;;4.87;1.40;;;14.60;99.90;;;;;;5013526;28;20363;-69
2023/03/07 07:18:35;;;;;;;4.18;1.63;;;14.60;99.90;;;;;;5013475;28;20645;-72
2023/03/07 07:21:04;;;;;;;5.90;1.17;;;14.70;99.90;;;;;;5013419;28;20049;-75
2023/03/07 07:23:30;;;;;;;4.38;1.55;;;15.60;99.90;;;;;;5013911;28;20319;-73
2023/03/07 07:25:56;;;;;;;2.72;1.10;;;16.50;99.90;;;;;;5013537;28;20494;-74
2023/03/07 07:28:23;;;;;;;4.05;1.20;;;17.60;99.90;;;;;;5013289;28;20022;-72
2023/03/07 07:30:49;;;;;;;4.57;1.25;;;19.10;99.90;;;;;;5013567;28;20037;-74
2023/03/07 07:33:20;;;;;;;3.70;1.13;;;20.00;99.90;;;;;;5012919;28;20028;-71
2023/03/07 07:35:48;;;;;;;3.03;1.08;;;20.50;99.90;;;;;;5013535;28;20062;-74
2023/03/07 07:38:14;;;;;;;2.38;1.10;;;20.20;99.90;;;;;;5013015;28;20025;-73
2023/03/07 07:40:41;;;;;;;3.72;1.40;;;19.90;99.90;;;;;;5013244;28;20061;-73
2023/03/07 07:43:15;;;;;;;8.93;2.03;;;19.90;99.90;;;;;;5011456;28;20033;-72
2023/03/07 07:45:44;;;;;;;3.45;1.40;;;19.30;99.90;;;;;;5012721;28;20065;-73
2023/03/07 07:48:10;;;;;;;12.60;1.80;;;19.10;99.90;;;;;;5012543;28;20026;-74
2023/03/07 07:50:37;;;;;;;3.55;1.52;;;19.30;99.90;;;;;;5013294;28;20054;-74
2023/03/07 07:53:03;;;;;;;9.93;2.00;;;19.00;99.90;;;;;;5011437;28;20033;-75
2023/03/07 07:55:29;;;;;;;10.23;2.13;;;18.50;99.90;;;;;;5012667;28;20072;-74
2023/03/07 07:57:57;;;;;;;4.03;1.38;;;18.30;99.90;;;;;;5013082;28;20038;-71
2023/03/07 08:00:24;;;;;;;8.57;2.03;;;18.00;99.90;;;;;;5012699;28;20053;-74
2023/03/07 08:02:51;;;;;;;9.75;2.25;;;18.00;99.90;;;;;;5012800;28;20048;-74
2023/03/07 08:05:19;;;;;;;5.75;2.30;;;18.30;99.90;;;;;;5013241;28;20477;-75
2023/03/07 08:07:46;;;;;;;4.93;1.60;;;18.60;99.90;;;;;;5013070;28;20025;-76
2023/03/07 08:10:17;;;;;;;9.25;1.60;;;18.80;99.90;;;;;;5012528;28;20483;-67
2023/03/07 08:12:44;;;;;;;6.50;1.40;;;18.80;99.90;;;;;;5012291;28;20021;-63
2023/03/07 08:15:11;;;;;;;9.13;1.92;;;18.80;99.90;;;;;;5001168;28;20112;-66
2023/03/07 08:17:39;;;;;;;6.88;1.38;;;19.00;99.90;;;;;;5000775;28;20030;-65
2023/03/07 08:20:08;;;;;;;3.95;1.17;;;19.10;99.90;;;;;;5001106;28;20064;-65
2023/03/07 08:22:35;;;;;;;4.38;1.10;;;18.90;99.90;;;;;;5003132;28;20030;-67
2023/03/07 08:25:03;;;;;;;7.38;1.25;;;19.00;99.90;;;;;;5003251;28;20022;-64
2023/03/07 08:27:30;;;;;;;11.75;1.85;;;18.80;99.90;;;;;;5003795;28;20144;-63
2023/03/07 08:29:56;;;;;;;13.15;1.58;;;19.00;99.90;;;;;;5003273;28;20057;-69
2023/03/07 11:07:33;;;;;;;5.97;1.40;;;17.70;99.90;;;;;;5082536;27;20352;-65
2023/03/07 11:10:01;;;;;;;7.68;1.35;;;17.70;99.90;;;;;;5074655;28;20432;-64
2023/03/07 11:12:30;;;;;;;3.97;1.45;;;18.00;99.90;;;;;;5069101;28;20489;-65
2023/03/07 11:15:24;;;;;;;5.32;1.67;;;18.10;99.90;;;;;;5069648;28;20036;-67
2023/03/07 11:17:53;;;;;;;6.28;2.42;;;18.00;99.90;;;;;;5077461;28;20032;-59
2023/03/07 11:20:45;;;;;;;3.90;1.23;;;17.70;99.90;;;;;;5089082;28;20025;-64
2023/03/07 11:23:29;;;;;;;4.25;1.40;;;17.30;99.90;;;;;;5087457;28;20099;-64
2023/03/07 11:26:15;;;;;;;7.00;1.35;;;17.40;99.90;;;;;;5088586;28;20135;-64
2023/03/07 11:28:41;;;;;;;6.03;1.20;;;17.50;99.90;;;;;;5088913;28;20450;-66
2023/03/07 11:31:33;;;;;;;6.32;1.00;;;17.50;99.90;;;;;;5089118;28;20048;-64
2023/03/07 11:34:52;;;;;;;5.25;1.25;;;17.60;99.90;;;;;;5088782;28;20077;-64
2023/03/07 11:37:33;;;;;;;8.82;3.17;;;17.90;99.90;;;;;;5076353;28;20453;-64
2023/03/07 11:40:19;;;;;;;5.18;1.45;;;18.00;99.90;;;;;;5068892;28;20086;-65
2023/03/07 11:43:26;;;;;;;7.55;1.90;;;18.50;99.90;;;;;;5069097;28;20078;-60
2023/03/07 11:46:04;;;;;;;6.72;1.85;;;18.60;99.90;;;;;;5052245;28;20080;-65
2023/03/07 11:48:42;;;;;;;9.38;1.40;;;18.60;99.90;;;;;;5068430;28;20449;-65
2023/03/07 11:51:33;;;;;;;7.22;1.90;;;18.40;99.90;;;;;;5066610;28;20029;-65
2023/03/07 11:54:44;;;;;;;7.03;1.45;;;18.40;99.90;;;;;;5068740;28;20035;-64
2023/03/07 11:57:45;;;;;;;5.10;1.23;;;18.00;99.90;;;;;;5052026;28;20051;-65
2023/03/07 12:00:33;;;;;;;5.22;1.40;;;17.90;99.90;;;;;;5068333;28;20044;-64
2023/03/07 12:03:26;;;;;;;6.72;1.92;;;18.40;99.90;;;;;;5067736;28;20016;-66
2023/03/07 12:06:21;;;;;;;6.55;1.10;;;18.30;99.90;;;;;;5076280;28;20052;-65
2023/03/07 12:08:51;;;;;;;6.07;1.38;;;18.50;99.90;;;;;;5051105;28;20063;-65
2023/03/07 12:11:36;;;;;;;8.25;1.50;;;18.40;99.90;;;;;;5068127;28;20100;-65
2023/03/07 12:14:21;;;;;;;5.60;1.30;;;18.60;99.90;;;;;;5067504;28;20502;-65
2023/03/07 12:17:41;;;;;;;5.57;1.23;;;18.70;99.90;;;;;;5065166;28;20108;-65
2023/03/07 12:20:12;;;;;;;6.00;1.10;;;18.90;99.90;;;;;;4993399;28;20031;-65
2023/03/07 12:23:18;;;;;;;10.65;1.50;;;18.60;99.90;;;;;;4993460;28;20101;-64
2023/03/07 12:25:46;;;;;;;;;;;18.40;99.90;;;;;;4974194;28;20046;-65
2023/03/07 12:28:20;;;;;;;6.15;1.48;;;18.20;99.90;;;;;;4974165;28;19928;-67
2023/03/07 12:31:05;;;;;;;3.92;1.40;;;18.40;99.90;;;;;;4974602;28;20498;-65
2023/03/07 12:33:52;;;;;;;4.30;1.35;;;18.40;99.90;;;;;;4974846;28;20031;-64
2023/03/07 12:36:40;;;;;;;6.97;1.40;;;18.20;99.90;;;;;;4974352;28;20046;-65
2023/03/07 12:39:37;;;;;;;5.13;1.67;;;18.20;99.90;;;;;;4974575;28;20530;-65
2023/03/07 12:42:09;;;;;;;5.55;1.60;;;18.40;99.90;;;;;;4973837;28;20041;-64
2023/03/07 12:44:55;;;;;;;5.70;1.90;;;18.70;99.90;;;;;;4974719;28;20035;-64
2023/03/07 12:47:46;;;;;;;7.47;1.33;;;18.40;99.90;;;;;;4974410;28;20042;-64
2023/03/07 12:50:25;;;;;;;3.45;1.33;;;18.30;99.90;;;;;;4979939;28;20073;-64
2023/03/07 12:52:56;;;;;;;8.05;1.67;;;18.10;99.90;;;;;;4992761;28;20045;-63
2023/03/07 12:55:45;;;;;;;6.32;1.60;;;18.00;99.90;;;;;;4993279;28;20551;-63
2023/03/07 12:58:54;;;;;;;5.07;1.50;;;18.10;99.90;;;;;;4992957;28;20141;-63
2023/03/07 13:01:33;;;;;;;6.10;1.33;;;17.80;99.90;;;;;;4992481;28;20037;-64
2023/03/07 13:04:22;;;;;;;8.38;1.50;;;17.80;99.90;;;;;;5068994;28;20037;-63
2023/03/07 13:06:50;;;;;;;5.78;1.30;;;17.60;99.90;;;;;;5060337;28;20045;-64
2023/03/07 13:09:25;;;;;;;6.60;1.33;;;17.80;99.90;;;;;;5090033;28;20091;-62
2023/03/07 13:12:15;;;;;;;4.47;1.50;;;17.80;99.90;;;;;;5090511;28;20094;-63
2023/03/07 13:14:47;;;;;;;5.85;1.63;;;18.00;99.90;;;;;;5074186;28;20475;-63
2023/03/07 13:17:40;;;;;;;3.95;1.40;;;18.00;99.90;;;;;;5089466;28;20028;-66
2023/03/07 13:20:18;;;;;;;8.20;1.38;;;17.80;99.90;;;;;;5051036;28;20036;-64
2023/03/07 13:22:45;;;;;;;4.55;1.40;;;17.80;99.90;;;;;;5074062;28;20468;-64
2023/03/07 13:25:20;;;;;;;4.23;1.37;;;18.00;99.90;;;;;;5061706;28;20139;-63
2023/03/07 13:27:50;;;;;;;9.48;1.30;;;17.80;99.90;;;;;;5063100;28;20275;-64
2023/03/07 13:30:27;;;;;;;4.97;1.40;;;17.70;99.90;;;;;;5060997;28;20017;-65
2023/03/07 13:32:54;;;;;;;7.70;1.50;;;17.70;99.90;;;;;;5061422;28;20341;-64
2023/03/07 13:35:27;;;;;;;6.80;1.38;;;17.60;99.90;;;;;;5063034;28;20774;-63
2023/03/07 13:38:21;;;;;;;8.43;1.70;;;17.40;99.90;;;;;;5072821;28;20064;-64
2023/03/07 13:40:53;;;;;;;6.43;1.30;;;17.50;99.90;;;;;;5074304;28;20059;-64
2023/03/07 13:43:25;;;;;;;5.78;1.42;;;17.60;99.90;;;;;;5073711;28;20020;-65
2023/03/07 13:45:55;;;;;;;8.73;1.30;;;17.30;99.90;;;;;;5074089;28;20040;-63
2023/03/07 13:48:27;;;;;;;5.18;0.90;;;17.40;99.90;;;;;;5074178;28;20078;-63
2023/03/07 13:50:53;;;;;;;3.67;1.00;;;17.00;99.90;;;;;;5073679;28;20529;-63
2023/03/07 13:53:35;;;;;;;4.20;1.03;;;17.10;99.90;;;;;;5073396;28;20074;-64
2023/03/07 13:56:14;;;;;;;6.10;1.10;;;17.00;99.90;;;;;;5074097;28;20255;-62
2023/03/07 13:59:10;;;;;;;5.07;1.10;;;17.10;99.90;;;;;;5055619;28;20366;-66
2023/03/07 14:01:43;;;;;;;5.40;0.93;;;17.20;99.90;;;;;;5073656;28;20028;-65
2023/03/07 14:04:25;;;;;;;5.57;1.00;;;17.10;99.90;;;;;;5073775;28;20036;-64
2023/03/07 14:07:26;;;;;;;4.93;1.30;;;17.30;99.90;;;;;;5072508;28;20044;-64
2023/03/07 14:10:12;;;;;;;5.03;1.00;;;17.10;99.90;;;;;;5073147;28;20376;-63
2023/03/07 14:13:04;;;;;;;5.20;0.95;;;17.00;99.90;;;;;;5073628;28;20028;-65
2023/03/07 14:16:02;;;;;;;3.75;1.15;;;17.10;99.90;;;;;;5073713;28;20039;-64
2023/03/07 14:18:47;;;;;;;5.50;1.27;;;17.20;99.90;;;;;;5061451;28;20111;-65
2023/03/07 14:21:31;;;;;;;4.72;1.50;;;17.30;99.90;;;;;;5073460;28;20025;-64
2023/03/07 14:24:25;;;;;;;10.18;1.45;;;17.50;99.90;;;;;;5073892;28;20146;-64
2023/03/07 14:26:57;;;;;;;5.57;1.52;;;17.50;99.90;;;;;;5073150;28;20467;-64
2023/03/07 14:29:26;;;;;;;9.10;1.90;;;17.30;99.90;;;;;;5073116;28;20411;-65
2023/03/07 14:31:55;;;;;;;6.18;1.08;;;17.20;99.90;;;;;;5073443;28;20029;-65
2023/03/07 14:34:28;;;;;;;4.00;1.20;;;17.20;99.90;;;;;;5073025;28;20120;-65
2023/03/07 14:37:03;;;;;;;4.70;1.10;;;17.10;99.90;;;;;;5073257;28;20050;-61
2023/03/07 14:39:55;;;;;;;10.23;1.23;;;17.00;99.90;;;;;;5073294;28;20468;-64
2023/03/07 14:42:55;;;;;;;7.22;1.20;;;16.90;99.90;;;;;;5041075;28;20060;-61
2023/03/07 14:45:39;;;;;;;3.58;1.02;;;17.00;99.90;;;;;;5058137;28;20029;-63
2023/03/07 14:48:11;;;;;;;7.10;1.60;;;17.10;99.90;;;;;;5067795;28;20040;-62
2023/03/07 14:50:43;;;;;;;5.45;1.17;;;17.10;99.90;;;;;;5053160;28;20445;-65
2023/03/07 14:53:27;;;;;;;5.78;0.95;;;16.80;99.90;;;;;;5052654;28;20017;-65
2023/03/07 14:55:55;;;;;;;5.00;1.27;;;16.70;99.90;;;;;;5034923;28;20120;-64
2023/03/07 14:58:29;;;;;;;4.82;1.58;;;16.70;99.90;;;;;;5053422;28;20043;-64
2023/03/07 15:01:04;;;;;;;5.43;1.30;;;16.80;99.90;;;;;;5052728;28;20136;-64
2023/03/07 15:03:54;;;;;;;7.13;1.60;;;16.80;99.90;;;;;;5052221;28;20027;-64
2023/03/07 15:06:24;;;;;;;5.82;1.77;;;17.00;99.90;;;;;;5054509;28;20454;-66
2023/03/07 15:08:51;;;;;;;5.55;1.50;;;16.90;99.90;;;;;;5072542;28;20024;-61
2023/03/07 15:11:43;;;;;;;4.22;1.40;;;17.00;99.90;;;;;;5072230;28;20070;-66
2023/03/07 15:14:38;;;;;;;9.63;1.23;;;16.90;99.90;;;;;;5072447;28;20024;-64
2023/03/07 15:17:25;;;;;;;6.32;1.30;;;16.90;99.90;;;;;;5072667;28;20056;-64
2023/03/07 15:20:05;;;;;;;5.03;1.33;;;16.90;99.90;;;;;;5054175;28;20383;-64
2023/03/07 15:22:39;;;;;;;8.13;1.52;;;16.80;99.90;;;;;;5069713;28;20024;-65
2023/03/07 15:25:26;;;;;;;5.22;1.33;;;16.80;99.90;;;;;;5034122;28;20021;-67
2023/03/07 15:28:05;;;;;;;4.13;1.25;;;16.80;99.90;;;;;;5077633;28;20166;-63
2023/03/07 15:30:34;;;;;;;8.02;1.60;;;16.70;99.90;;;;;;5078040;28;20032;-64
2023/03/07 15:33:20;;;;;;;6.38;1.83;;;16.70;99.90;;;;;;5092061;28;20456;-65
2023/03/07 15:36:12;;;;;;;4.60;1.35;;;16.70;99.90;;;;;;5092508;28;20028;-65
2023/03/07 15:38:40;;;;;;;6.75;1.30;;;16.80;99.90;;;;;;5049506;28;20132;-64
2023/03/07 15:41:32;;;;;;;5.78;1.45;;;16.80;99.90;;;;;;5072105;28;20024;-64
2023/03/07 15:44:11;;;;;;;5.50;1.30;;;16.70;99.90;;;;;;5071807;28;20036;-65
2023/03/07 15:46:44;;;;;;;4.53;1.25;;;16.80;99.90;;;;;;5071853;28;20133;-62
2023/03/07 15:49:42;;;;;;;10.52;1.45;;;16.70;99.90;;;;;;5071620;28;20222;-65
2023/03/07 15:52:25;;;;;;;5.05;1.20;;;16.70;99.90;;;;;;5065486;28;20527;-65